createdAt,value
2017-04-07T00:00:50.927Z,72.40
2017-04-07T00:01:49.999Z,72.60
2017-04-07T00:02:48.965Z,72.10
2017-04-07T00:03:47.545Z,72.10
2017-04-07T00:04:46.635Z,72.70
2017-04-07T00:05:45.627Z,73.80
2017-04-07T00:06:44.626Z,73.10
2017-04-07T00:07:43.627Z,72.40
2017-04-07T00:08:42.650Z,71.70
2017-04-07T00:09:41.646Z,71.50
2017-04-07T00:10:40.327Z,71.50
2017-04-07T00:11:39.319Z,71.30
2017-04-07T00:12:38.330Z,72.10
2017-04-07T00:13:37.337Z,71.90
2017-04-07T00:14:36.618Z,72.30
2017-04-07T00:15:35.633Z,71.70
2017-04-07T00:16:34.627Z,71.50
2017-04-07T00:17:33.652Z,72.70
2017-04-07T00:18:32.785Z,73.50
2017-04-07T00:19:31.355Z,73.50
2017-04-07T00:20:30.171Z,73.20
2017-04-07T00:21:29.148Z,73.50
2017-04-07T00:22:28.175Z,72.80
2017-04-07T00:23:27.098Z,72.70
2017-04-07T00:24:26.243Z,73.20
2017-04-07T00:25:24.856Z,73.20
2017-04-07T00:26:23.764Z,73.40
2017-04-07T00:27:23.179Z,73.50
2017-04-07T00:28:22.135Z,73.30
2017-04-07T00:29:20.685Z,73.30
2017-04-07T00:30:19.669Z,74.10
2017-04-07T00:31:18.702Z,74.30
2017-04-07T00:32:17.624Z,74.20
2017-04-07T00:33:16.623Z,74.40
2017-04-07T00:34:15.700Z,74.70
2017-04-07T00:35:14.252Z,74.70
2017-04-07T00:36:14.111Z,74.70
2017-04-07T00:37:13.091Z,74.90
2017-04-07T00:38:12.000Z,75.40
2017-04-07T00:39:11.059Z,75.40
2017-04-07T00:40:10.015Z,75.60
2017-04-07T00:41:09.039Z,75.90
2017-04-07T00:42:08.012Z,76.00
2017-04-07T00:43:07.030Z,75.90
2017-04-07T00:44:06.343Z,74.20
2017-04-07T00:45:04.952Z,74.20
2017-04-07T00:46:03.971Z,75.50
2017-04-07T00:47:02.880Z,76.00
2017-04-07T00:48:01.880Z,76.10
2017-04-07T00:49:00.881Z,76.70
2017-04-07T00:49:59.860Z,76.60
2017-04-07T00:50:58.814Z,76.40
2017-04-07T00:51:57.413Z,76.40
2017-04-07T00:52:56.376Z,75.90
2017-04-07T00:53:55.357Z,76.20
2017-04-07T00:54:54.375Z,75.80
2017-04-07T00:55:53.367Z,75.70
2017-04-07T00:56:52.360Z,75.00
2017-04-07T00:57:51.322Z,75.90
2017-04-07T00:58:50.317Z,76.40
2017-04-07T00:59:49.261Z,75.60
2017-04-07T01:00:48.191Z,75.80
2017-04-07T01:01:47.555Z,76.20
2017-04-07T01:02:46.550Z,75.40
2017-04-07T01:03:45.521Z,75.20
2017-04-07T01:04:44.530Z,75.70
2017-04-07T01:05:43.532Z,75.80
2017-04-07T01:06:42.542Z,75.40
2017-04-07T01:07:41.086Z,75.40
2017-04-07T01:08:40.059Z,76.20
2017-04-07T01:09:39.076Z,76.10
2017-04-07T01:10:38.056Z,76.40
2017-04-07T01:11:36.627Z,76.40
2017-04-07T01:12:35.944Z,76.10
2017-04-07T01:13:34.866Z,75.80
2017-04-07T01:14:33.454Z,75.80
2017-04-07T01:15:32.422Z,75.80
2017-04-07T01:16:31.826Z,76.20
2017-04-07T01:17:30.876Z,75.90
2017-04-07T01:18:29.827Z,75.80
2017-04-07T01:19:28.820Z,75.30
2017-04-07T01:20:27.823Z,75.50
2017-04-07T01:21:26.815Z,75.40
2017-04-07T01:22:25.786Z,75.10
2017-04-07T01:23:24.764Z,75.20
2017-04-07T01:24:23.730Z,75.20
2017-04-07T01:25:22.696Z,75.30
2017-04-07T01:26:21.650Z,75.30
2017-04-07T01:27:20.639Z,75.70
2017-04-07T01:28:19.587Z,75.60
2017-04-07T01:29:18.635Z,75.60
2017-04-07T01:30:17.969Z,75.90
2017-04-07T01:31:16.947Z,75.80
2017-04-07T01:32:15.506Z,75.70
2017-04-07T01:33:14.463Z,75.30
2017-04-07T01:34:13.423Z,75.30
2017-04-07T01:35:11.977Z,75.30
2017-04-07T01:36:10.983Z,75.70
2017-04-07T01:37:09.964Z,75.90
2017-04-07T01:38:09.002Z,75.40
2017-04-07T01:39:07.914Z,75.80
2017-04-07T01:40:06.899Z,76.10
2017-04-07T01:41:05.831Z,76.30
2017-04-07T01:42:04.791Z,76.10
2017-04-07T01:43:03.705Z,76.20
2017-04-07T01:44:02.744Z,76.00
2017-04-07T01:45:01.714Z,76.20
2017-04-07T01:46:00.711Z,76.10
2017-04-07T01:46:59.707Z,76.30
2017-04-07T01:47:58.745Z,76.70
2017-04-07T01:48:57.777Z,76.50
2017-04-07T01:49:56.787Z,76.70
2017-04-07T01:50:56.147Z,76.60
2017-04-07T01:51:55.094Z,77.00
2017-04-07T01:52:54.787Z,76.80
2017-04-07T01:53:53.847Z,77.10
2017-04-07T01:54:53.159Z,77.90
2017-04-07T01:55:52.147Z,78.10
2017-04-07T01:56:51.123Z,77.40
2017-04-07T01:57:50.078Z,77.40
2017-04-07T01:58:49.080Z,77.60
2017-04-07T01:59:48.175Z,77.30
2017-04-07T02:00:47.227Z,78.00
2017-04-07T02:01:46.206Z,78.40
2017-04-07T02:02:45.160Z,78.10
2017-04-07T02:03:44.204Z,77.80
2017-04-07T02:04:43.163Z,77.80
2017-04-07T02:05:42.136Z,78.60
2017-04-07T02:06:41.153Z,78.60
2017-04-07T02:07:40.119Z,79.00
2017-04-07T02:08:39.099Z,79.00
2017-04-07T02:09:38.463Z,79.00
2017-04-07T02:10:37.415Z,78.80
2017-04-07T02:11:36.379Z,78.80
2017-04-07T02:12:35.314Z,78.90
2017-04-07T02:13:34.253Z,79.20
2017-04-07T02:14:33.251Z,79.70
2017-04-07T02:15:32.176Z,79.40
2017-04-07T02:16:31.130Z,79.60
2017-04-07T02:17:30.505Z,79.80
2017-04-07T02:18:29.504Z,80.20
2017-04-07T02:19:28.483Z,80.20
2017-04-07T02:20:27.520Z,80.00
2017-04-07T02:21:26.467Z,79.50
2017-04-07T02:22:25.455Z,79.90
2017-04-07T02:23:24.491Z,80.50
2017-04-07T02:24:23.432Z,80.60
2017-04-07T02:25:22.389Z,80.90
2017-04-07T02:26:21.360Z,80.20
2017-04-07T02:27:20.331Z,80.40
2017-04-07T02:28:19.324Z,80.60
2017-04-07T02:29:18.303Z,81.20
2017-04-07T02:30:18.095Z,80.60
2017-04-07T02:31:17.040Z,80.40
2017-04-07T02:32:16.027Z,80.70
2017-04-07T02:33:15.028Z,80.80
2017-04-07T02:34:13.996Z,80.60
2017-04-07T02:35:13.016Z,80.80
2017-04-07T02:36:11.945Z,81.20
2017-04-07T02:37:10.987Z,81.20
2017-04-07T02:38:09.978Z,81.50
2017-04-07T02:39:08.935Z,81.60
2017-04-07T02:40:08.011Z,82.00
2017-04-07T02:41:06.999Z,81.50
2017-04-07T02:42:05.994Z,81.20
2017-04-07T02:43:05.014Z,81.60
2017-04-07T02:44:04.048Z,81.50
2017-04-07T02:45:03.023Z,81.20
2017-04-07T02:46:02.337Z,81.60
2017-04-07T02:47:00.932Z,81.60
2017-04-07T02:47:59.483Z,82.30
2017-04-07T02:48:58.049Z,82.20
2017-04-07T02:49:57.041Z,82.50
2017-04-07T02:50:56.056Z,82.50
2017-04-07T02:51:55.009Z,82.70
2017-04-07T02:52:53.992Z,82.90
2017-04-07T02:53:53.023Z,83.00
2017-04-07T02:54:51.549Z,83.00
2017-04-07T02:55:50.567Z,83.50
2017-04-07T02:56:49.503Z,83.50
2017-04-07T02:57:48.476Z,83.70
2017-04-07T02:58:47.864Z,84.00
2017-04-07T02:59:46.858Z,84.30
2017-04-07T03:00:46.199Z,84.40
2017-04-07T03:01:45.192Z,84.30
2017-04-07T03:02:44.583Z,84.30
2017-04-07T03:03:43.539Z,84.20
2017-04-07T03:04:42.527Z,84.10
2017-04-07T03:05:41.519Z,84.20
2017-04-07T03:06:40.515Z,84.40
2017-04-07T03:07:39.103Z,84.40
2017-04-07T03:08:38.036Z,84.40
2017-04-07T03:09:37.046Z,84.40
2017-04-07T03:10:35.990Z,84.50
2017-04-07T03:11:34.976Z,84.70
2017-04-07T03:12:33.987Z,84.70
2017-04-07T03:13:33.080Z,84.80
2017-04-07T03:14:31.999Z,84.80
2017-04-07T03:15:30.574Z,84.80
2017-04-07T03:16:29.583Z,84.80
2017-04-07T03:17:28.560Z,84.40
2017-04-07T03:18:27.253Z,84.40
2017-04-07T03:19:25.807Z,84.20
2017-04-07T03:20:25.136Z,84.60
2017-04-07T03:21:24.129Z,84.40
2017-04-07T03:22:23.115Z,84.70
2017-04-07T03:23:22.171Z,85.10
2017-04-07T03:24:21.108Z,85.40
2017-04-07T03:25:20.132Z,85.00
2017-04-07T03:26:19.127Z,84.90
2017-04-07T03:27:17.695Z,84.80
2017-04-07T03:28:16.704Z,85.00
2017-04-07T03:29:15.703Z,85.10
2017-04-07T03:30:14.675Z,85.20
2017-04-07T03:31:13.620Z,85.10
2017-04-07T03:32:12.194Z,85.10
2017-04-07T03:33:11.220Z,85.40
2017-04-07T03:34:10.250Z,85.40
2017-04-07T03:35:09.608Z,85.20
2017-04-07T03:36:08.542Z,85.40
2017-04-07T03:37:07.551Z,85.60
2017-04-07T03:38:06.535Z,85.60
2017-04-07T03:39:05.887Z,85.50
2017-04-07T03:40:04.943Z,85.20
2017-04-07T03:41:03.851Z,85.40
2017-04-07T03:42:02.790Z,85.50
2017-04-07T03:43:02.176Z,85.30
2017-04-07T03:44:01.143Z,85.60
2017-04-07T03:45:00.099Z,85.60
2017-04-07T03:45:59.099Z,85.80
2017-04-07T03:46:58.060Z,85.80
2017-04-07T03:47:57.370Z,85.50
2017-04-07T03:48:55.918Z,85.50
2017-04-07T03:49:54.625Z,85.80
2017-04-07T03:50:53.610Z,86.10
2017-04-07T03:51:53.027Z,86.30
2017-04-07T03:52:52.032Z,86.50
2017-04-07T03:53:51.031Z,86.30
2017-04-07T03:54:50.136Z,86.40
2017-04-07T03:55:49.172Z,86.40
2017-04-07T03:56:48.200Z,86.60
2017-04-07T03:57:46.833Z,86.60
2017-04-07T03:58:45.950Z,86.80
2017-04-07T03:59:44.937Z,86.80
2017-04-07T04:00:43.937Z,87.10
2017-04-07T04:01:42.943Z,87.20
2017-04-07T04:02:41.982Z,87.20
2017-04-07T04:03:41.054Z,87.30
2017-04-07T04:04:39.986Z,87.00
2017-04-07T04:05:39.019Z,87.10
2017-04-07T04:06:38.006Z,87.30
2017-04-07T04:07:36.947Z,87.30
2017-04-07T04:08:36.308Z,87.10
2017-04-07T04:09:35.335Z,87.20
2017-04-07T04:10:34.286Z,87.20
2017-04-07T04:11:33.300Z,87.20
2017-04-07T04:12:32.676Z,87.10
2017-04-07T04:13:31.652Z,86.90
2017-04-07T04:14:30.204Z,86.90
2017-04-07T04:15:29.304Z,87.10
2017-04-07T04:16:32.469Z,87.20
2017-04-07T04:17:31.891Z,87.20
2017-04-07T04:18:30.840Z,87.20
2017-04-07T04:19:29.756Z,87.30
2017-04-07T04:20:28.759Z,87.30
2017-04-07T04:21:27.792Z,87.10
2017-04-07T04:22:26.352Z,87.20
2017-04-07T04:23:25.372Z,87.30
2017-04-07T04:24:24.463Z,87.30
2017-04-07T04:25:23.390Z,87.40
2017-04-07T04:26:22.428Z,87.20
2017-04-07T04:27:21.446Z,87.30
2017-04-07T04:28:20.426Z,87.50
2017-04-07T04:29:19.411Z,87.50
2017-04-07T04:30:18.364Z,87.70
2017-04-07T04:31:16.964Z,87.70
2017-04-07T04:32:15.927Z,87.90
2017-04-07T04:33:14.962Z,87.40
2017-04-07T04:34:13.935Z,87.40
2017-04-07T04:35:12.864Z,87.50
2017-04-07T04:36:11.863Z,87.40
2017-04-07T04:37:10.843Z,87.70
2017-04-07T04:38:09.857Z,88.00
2017-04-07T04:39:08.768Z,88.10
2017-04-07T04:40:07.760Z,88.10
2017-04-07T04:41:07.048Z,87.90
2017-04-07T04:42:06.096Z,88.00
2017-04-07T04:43:05.119Z,87.70
2017-04-07T04:44:03.666Z,87.70
2017-04-07T04:45:02.293Z,87.80
2017-04-07T04:46:01.232Z,88.00
2017-04-07T04:46:59.903Z,88.00
2017-04-07T04:47:58.843Z,88.30
2017-04-07T04:48:57.823Z,88.40
2017-04-07T04:49:56.343Z,88.40
2017-04-07T04:50:54.965Z,87.90
2017-04-07T04:51:53.991Z,87.80
2017-04-07T04:52:52.959Z,88.00
2017-04-07T04:53:51.948Z,88.40
2017-04-07T04:54:50.897Z,88.10
2017-04-07T04:55:49.816Z,88.20
2017-04-07T04:56:49.211Z,88.10
2017-04-07T04:57:48.258Z,88.10
2017-04-07T04:58:46.777Z,88.10
2017-04-07T04:59:46.139Z,88.00
2017-04-07T05:00:45.125Z,87.80
2017-04-07T05:01:44.079Z,88.10
2017-04-07T05:02:42.635Z,88.10
2017-04-07T05:03:42.080Z,88.70
2017-04-07T05:04:41.071Z,88.30
2017-04-07T05:05:40.007Z,87.90
2017-04-07T05:06:38.592Z,87.90
2017-04-07T05:07:37.188Z,87.70
2017-04-07T05:08:36.220Z,87.80
2017-04-07T05:09:35.163Z,87.70
2017-04-07T05:10:34.113Z,87.70
2017-04-07T05:11:33.118Z,87.30
2017-04-07T05:12:32.131Z,86.90
2017-04-07T05:13:31.142Z,87.10
2017-04-07T05:14:29.786Z,87.10
2017-04-07T05:15:28.779Z,87.40
2017-04-07T05:16:27.740Z,87.00
2017-04-07T05:17:26.708Z,86.70
2017-04-07T05:18:25.647Z,86.50
2017-04-07T05:19:24.634Z,86.20
2017-04-07T05:20:23.679Z,86.00
2017-04-07T05:21:22.641Z,86.30
2017-04-07T05:22:21.664Z,86.30
2017-04-07T05:23:20.639Z,86.00
2017-04-07T05:24:19.215Z,86.00
2017-04-07T05:25:18.152Z,85.70
2017-04-07T05:26:17.237Z,85.30
2017-04-07T05:27:16.158Z,85.20
2017-04-07T05:28:15.554Z,85.40
2017-04-07T05:29:14.476Z,85.20
2017-04-07T05:30:13.044Z,85.20
2017-04-07T05:31:12.399Z,85.00
2017-04-07T05:32:11.364Z,85.30
2017-04-07T05:33:10.382Z,85.30
2017-04-07T05:34:09.011Z,85.30
2017-04-07T05:35:07.910Z,84.60
2017-04-07T05:36:06.900Z,84.10
2017-04-07T05:37:09.641Z,83.80
2017-04-07T05:38:45.921Z,83.70
2017-04-07T05:39:53.219Z,83.60
2017-04-07T05:41:00.868Z,83.60
2017-04-07T05:42:27.797Z,83.60
2017-04-07T05:43:32.262Z,83.40
2017-04-07T05:44:31.238Z,83.80
2017-04-07T05:45:30.674Z,83.80
2017-04-07T05:46:29.633Z,83.60
2017-04-07T05:47:28.660Z,83.40
2017-04-07T05:48:27.650Z,83.40
2017-04-07T05:49:26.599Z,83.30
2017-04-07T05:50:25.983Z,83.40
2017-04-07T05:51:25.028Z,83.40
2017-04-07T05:52:23.979Z,83.30
2017-04-07T05:53:22.977Z,82.90
2017-04-07T05:54:21.967Z,82.60
2017-04-07T05:55:21.711Z,82.30
2017-04-07T05:56:21.187Z,82.10
2017-04-07T05:57:20.175Z,81.70
2017-04-07T05:58:19.171Z,81.60
2017-04-07T05:59:17.723Z,81.60
2017-04-07T06:00:16.719Z,81.50
2017-04-07T06:01:15.273Z,81.50
2017-04-07T06:02:14.303Z,81.10
2017-04-07T06:03:13.666Z,81.10
2017-04-07T06:04:12.613Z,81.70
2017-04-07T06:05:11.622Z,81.70
2017-04-07T06:06:10.560Z,81.70
2017-04-07T06:07:09.190Z,81.70
2017-04-07T06:08:08.171Z,81.00
2017-04-07T06:09:07.112Z,80.70
2017-04-07T06:10:06.221Z,80.70
2017-04-07T06:11:04.753Z,80.70
2017-04-07T06:12:03.783Z,80.70
2017-04-07T06:13:02.711Z,80.60
2017-04-07T06:14:01.717Z,81.10
2017-04-07T06:15:00.667Z,80.80
2017-04-07T06:15:59.623Z,80.70
2017-04-07T06:16:58.673Z,80.80
2017-04-07T06:17:57.628Z,80.70
2017-04-07T06:18:56.954Z,80.80
2017-04-07T06:19:55.940Z,80.90
2017-04-07T06:20:54.862Z,80.40
2017-04-07T06:21:53.868Z,80.00
2017-04-07T06:22:53.215Z,80.20
2017-04-07T06:23:52.204Z,80.40
2017-04-07T06:24:51.135Z,80.00
2017-04-07T06:25:50.159Z,79.50
2017-04-07T06:26:49.131Z,79.10
2017-04-07T06:27:48.078Z,79.30
2017-04-07T06:28:46.656Z,79.30
2017-04-07T06:29:45.983Z,79.80
2017-04-07T06:30:44.951Z,79.40
2017-04-07T06:31:43.892Z,79.30
2017-04-07T06:32:42.862Z,79.70
2017-04-07T06:33:41.817Z,79.10
2017-04-07T06:34:40.786Z,78.70
2017-04-07T06:35:39.730Z,78.30
2017-04-07T06:36:38.719Z,78.50
2017-04-07T06:37:38.057Z,78.80
2017-04-07T06:38:36.637Z,78.80
2017-04-07T06:39:35.606Z,79.00
2017-04-07T06:40:34.594Z,78.70
2017-04-07T06:41:33.560Z,78.70
2017-04-07T06:42:32.547Z,78.80
2017-04-07T06:43:31.488Z,79.00
2017-04-07T06:44:30.444Z,79.20
2017-04-07T06:45:29.447Z,79.40
2017-04-07T06:46:28.374Z,79.10
2017-04-07T06:47:27.348Z,79.40
2017-04-07T06:48:29.343Z,79.60
2017-04-07T06:49:28.351Z,79.80
2017-04-07T06:50:26.943Z,79.80
2017-04-07T06:51:25.547Z,80.00
2017-04-07T06:52:24.495Z,78.90
2017-04-07T06:53:23.502Z,78.90
2017-04-07T06:54:22.528Z,78.40
2017-04-07T06:55:21.568Z,78.40
2017-04-07T06:56:20.955Z,78.80
2017-04-07T06:57:19.948Z,78.60
2017-04-07T06:58:18.931Z,78.60
2017-04-07T06:59:17.858Z,79.20
2017-04-07T07:00:16.921Z,78.70
2017-04-07T07:01:15.944Z,78.00
2017-04-07T07:02:14.882Z,78.00
2017-04-07T07:03:13.862Z,78.10
2017-04-07T07:04:12.941Z,78.10
2017-04-07T07:05:12.484Z,78.00
2017-04-07T07:06:11.434Z,77.90
2017-04-07T07:07:10.540Z,78.10
2017-04-07T07:08:09.481Z,78.00
2017-04-07T07:09:08.600Z,78.40
2017-04-07T07:10:07.560Z,78.20
2017-04-07T07:11:06.536Z,78.10
2017-04-07T07:12:05.179Z,78.10
2017-04-07T07:13:04.187Z,78.30
2017-04-07T07:14:03.607Z,78.50
2017-04-07T07:15:02.638Z,78.80
2017-04-07T07:16:01.616Z,79.10
2017-04-07T07:17:00.616Z,78.50
2017-04-07T07:17:59.234Z,78.50
2017-04-07T07:18:58.208Z,78.20
2017-04-07T07:19:57.301Z,78.70
2017-04-07T07:20:56.323Z,78.60
2017-04-07T07:21:56.372Z,77.90
2017-04-07T07:22:55.374Z,77.90
2017-04-07T07:23:54.306Z,78.40
2017-04-07T07:24:53.360Z,78.50
2017-04-07T07:25:53.075Z,78.40
2017-04-07T07:26:51.695Z,78.40
2017-04-07T07:27:51.038Z,78.10
2017-04-07T07:28:49.618Z,78.00
2017-04-07T07:29:49.073Z,78.70
2017-04-07T07:30:48.102Z,78.80
2017-04-07T07:31:47.491Z,78.60
2017-04-07T07:32:46.455Z,78.20
2017-04-07T07:33:45.413Z,78.10
2017-04-07T07:34:44.072Z,78.10
2017-04-07T07:35:43.495Z,77.60
2017-04-07T07:36:42.127Z,77.50
2017-04-07T07:37:40.771Z,77.70
2017-04-07T07:38:39.730Z,78.20
2017-04-07T07:39:38.335Z,78.20
2017-04-07T07:40:37.240Z,77.30
2017-04-07T07:41:36.231Z,77.80
2017-04-07T07:42:35.244Z,77.80
2017-04-07T07:43:34.218Z,77.10
2017-04-07T07:44:33.206Z,76.90
2017-04-07T07:45:32.179Z,76.50
2017-04-07T07:46:31.147Z,76.70
2017-04-07T07:47:30.440Z,76.90
2017-04-07T07:48:29.463Z,77.80
2017-04-07T07:49:28.451Z,77.00
2017-04-07T07:50:27.429Z,76.40
2017-04-07T07:51:26.504Z,76.50
2017-04-07T07:52:25.428Z,76.30
2017-04-07T07:53:24.799Z,76.90
2017-04-07T07:54:23.871Z,76.70
2017-04-07T07:55:22.856Z,76.20
2017-04-07T07:56:21.810Z,76.40
2017-04-07T07:57:20.869Z,76.50
2017-04-07T07:58:19.847Z,76.80
2017-04-07T07:59:18.431Z,76.80
2017-04-07T08:00:17.502Z,76.60
2017-04-07T08:01:16.459Z,76.60
2017-04-07T08:02:15.035Z,76.60
2017-04-07T08:03:14.019Z,76.40
2017-04-07T08:04:13.000Z,76.20
2017-04-07T08:05:11.976Z,76.40
2017-04-07T08:06:10.950Z,76.60
2017-04-07T08:07:09.932Z,76.30
2017-04-07T08:08:08.916Z,76.70
2017-04-07T08:09:07.874Z,76.10
2017-04-07T08:10:06.878Z,76.30
2017-04-07T08:11:05.804Z,76.30
2017-04-07T08:12:04.795Z,76.30
2017-04-07T08:13:03.786Z,75.40
2017-04-07T08:14:02.700Z,75.30
2017-04-07T08:15:01.646Z,74.80
2017-04-07T08:16:00.687Z,74.10
2017-04-07T08:16:59.775Z,73.70
2017-04-07T08:17:58.767Z,74.00
2017-04-07T08:18:57.780Z,74.40
2017-04-07T08:19:56.787Z,73.90
2017-04-07T08:20:55.759Z,74.50
2017-04-07T08:21:54.735Z,73.10
2017-04-07T08:22:53.338Z,73.10
2017-04-07T08:23:52.262Z,73.50
2017-04-07T08:24:51.302Z,72.30
2017-04-07T08:25:49.874Z,72.30
2017-04-07T08:26:48.456Z,72.40
2017-04-07T08:27:47.387Z,72.90
2017-04-07T08:28:46.768Z,72.40
2017-04-07T08:29:45.776Z,72.30
2017-04-07T08:30:44.755Z,72.40
2017-04-07T08:31:43.742Z,72.40
2017-04-07T08:32:42.711Z,72.80
2017-04-07T08:33:41.660Z,72.60
2017-04-07T08:34:40.656Z,73.10
2017-04-07T08:35:39.606Z,72.30
2017-04-07T08:36:38.898Z,71.70
2017-04-07T08:37:38.043Z,72.20
2017-04-07T08:38:37.215Z,71.10
2017-04-07T08:39:36.191Z,71.40
2017-04-07T08:40:35.187Z,70.90
2017-04-07T08:41:34.158Z,71.40
2017-04-07T08:42:33.141Z,71.60
2017-04-07T08:43:32.174Z,72.50
2017-04-07T08:44:31.158Z,71.00
2017-04-07T08:45:29.708Z,71.00
2017-04-07T08:46:28.683Z,71.10
2017-04-07T08:47:27.288Z,71.10
2017-04-07T08:48:26.254Z,71.30
2017-04-07T08:49:25.243Z,70.40
2017-04-07T08:50:24.292Z,69.90
2017-04-07T08:51:23.291Z,70.00
2017-04-07T08:52:22.348Z,69.90
2017-04-07T08:53:21.302Z,69.60
2017-04-07T08:54:19.879Z,69.60
2017-04-07T08:55:19.200Z,69.90
2017-04-07T08:56:18.219Z,69.90
2017-04-07T08:57:17.172Z,70.20
2017-04-07T08:58:16.127Z,70.30
2017-04-07T08:59:15.222Z,70.10
2017-04-07T09:00:13.812Z,70.10
2017-04-07T09:01:12.919Z,70.90
2017-04-07T09:02:11.947Z,70.30
2017-04-07T09:03:10.519Z,70.30
2017-04-07T09:04:09.896Z,68.70
2017-04-07T09:05:08.864Z,68.50
2017-04-07T09:06:07.822Z,67.90
2017-04-07T09:07:06.863Z,68.50
2017-04-07T09:08:05.864Z,68.70
2017-04-07T09:09:05.795Z,67.80
2017-04-07T09:10:04.807Z,67.50
2017-04-07T09:11:03.804Z,68.20
2017-04-07T09:12:02.755Z,68.60
2017-04-07T09:13:01.707Z,70.40
2017-04-07T09:14:00.670Z,68.40
2017-04-07T09:14:59.985Z,68.00
2017-04-07T09:15:58.965Z,68.20
2017-04-07T09:16:57.971Z,67.80
2017-04-07T09:17:56.947Z,68.40
2017-04-07T09:18:55.489Z,68.40
2017-04-07T09:19:54.123Z,68.50
2017-04-07T09:20:53.092Z,68.60
2017-04-07T09:21:52.171Z,68.50
2017-04-07T09:22:51.139Z,68.90
2017-04-07T09:23:50.132Z,67.50
2017-04-07T09:24:49.111Z,67.00
2017-04-07T09:25:48.147Z,68.70
2017-04-07T09:26:47.053Z,69.10
2017-04-07T09:27:46.072Z,68.20
2017-04-07T09:28:44.648Z,68.20
2017-04-07T09:29:43.588Z,67.20
2017-04-07T09:30:42.872Z,67.00
2017-04-07T09:31:41.502Z,67.00
2017-04-07T09:32:40.448Z,66.30
2017-04-07T09:33:39.498Z,65.10
2017-04-07T09:34:38.479Z,65.00
2017-04-07T09:35:37.421Z,65.70
2017-04-07T09:36:36.391Z,65.20
2017-04-07T09:37:34.988Z,65.20
2017-04-07T09:38:33.964Z,64.50
2017-04-07T09:39:32.931Z,63.90
2017-04-07T09:40:31.911Z,64.70
2017-04-07T09:41:31.055Z,65.10
2017-04-07T09:42:30.031Z,66.20
2017-04-07T09:43:29.019Z,65.40
2017-04-07T09:44:28.006Z,64.80
2017-04-07T09:45:26.984Z,64.70
2017-04-07T09:46:25.950Z,65.30
2017-04-07T09:47:24.930Z,64.70
2017-04-07T09:48:23.535Z,64.70
2017-04-07T09:49:22.498Z,63.60
2017-04-07T09:50:21.519Z,63.80
2017-04-07T09:51:20.474Z,64.80
2017-04-07T09:52:19.887Z,65.00
2017-04-07T09:53:18.826Z,64.30
2017-04-07T09:54:17.766Z,64.30
2017-04-07T09:55:16.825Z,64.00
2017-04-07T09:56:15.786Z,63.40
2017-04-07T09:57:14.798Z,63.50
2017-04-07T09:58:13.324Z,63.50
2017-04-07T09:59:12.282Z,63.40
2017-04-07T10:00:11.275Z,63.20
2017-04-07T10:01:10.239Z,64.30
2017-04-07T10:02:09.264Z,64.50
2017-04-07T10:03:08.251Z,64.10
2017-04-07T10:04:07.209Z,64.40
2017-04-07T10:05:06.200Z,63.70
2017-04-07T10:06:04.794Z,63.70
2017-04-07T10:07:03.419Z,62.70
2017-04-07T10:08:01.980Z,62.90
2017-04-07T10:09:00.949Z,62.30
2017-04-07T10:09:59.898Z,62.40
2017-04-07T10:10:58.829Z,63.50
2017-04-07T10:11:57.871Z,62.60
2017-04-07T10:12:56.843Z,62.90
2017-04-07T10:13:55.808Z,61.70
2017-04-07T10:14:54.787Z,62.10
2017-04-07T10:15:53.791Z,62.50
2017-04-07T10:16:52.415Z,62.50
2017-04-07T10:17:51.382Z,62.90
2017-04-07T10:18:50.318Z,62.60
2017-04-07T10:19:49.347Z,61.70
2017-04-07T10:20:48.300Z,61.80
2017-04-07T10:21:47.283Z,63.10
2017-04-07T10:22:46.219Z,63.30
2017-04-07T10:23:45.176Z,62.80
2017-04-07T10:24:43.815Z,62.80
2017-04-07T10:25:42.851Z,62.20
2017-04-07T10:26:41.820Z,62.30
2017-04-07T10:27:41.207Z,61.70
2017-04-07T10:28:40.167Z,61.50
2017-04-07T10:29:39.123Z,62.20
2017-04-07T10:30:38.091Z,61.80
2017-04-07T10:31:36.680Z,61.80
2017-04-07T10:32:36.039Z,62.70
2017-04-07T10:33:35.007Z,63.30
2017-04-07T10:34:34.036Z,61.60
2017-04-07T10:35:33.347Z,61.80
2017-04-07T10:36:32.331Z,62.20
2017-04-07T10:37:30.900Z,62.20
2017-04-07T10:38:29.866Z,63.30
2017-04-07T10:39:29.227Z,62.90
2017-04-07T10:40:28.180Z,61.30
2017-04-07T10:41:27.194Z,62.10
2017-04-07T10:42:26.145Z,61.10
2017-04-07T10:43:24.710Z,61.10
2017-04-07T10:44:23.680Z,61.30
2017-04-07T10:45:22.731Z,62.00
2017-04-07T10:46:21.843Z,61.80
2017-04-07T10:47:21.179Z,62.60
2017-04-07T10:48:20.111Z,63.40
2017-04-07T10:49:19.470Z,63.40
2017-04-07T10:50:18.447Z,61.90
2017-04-07T10:51:17.458Z,62.40
2017-04-07T10:52:16.047Z,62.40
2017-04-07T10:53:14.999Z,62.00
2017-04-07T10:54:13.966Z,61.50
2017-04-07T10:55:12.988Z,62.30
2017-04-07T10:56:11.588Z,62.30
2017-04-07T10:57:10.137Z,62.30
2017-04-07T10:58:09.159Z,61.80
2017-04-07T10:59:07.684Z,61.80
2017-04-07T11:00:06.669Z,62.20
2017-04-07T11:01:05.275Z,62.20
2017-04-07T11:02:04.253Z,62.50
2017-04-07T11:03:03.232Z,61.60
2017-04-07T11:04:01.783Z,61.50
2017-04-07T11:05:00.780Z,62.50
2017-04-07T11:05:59.742Z,61.50
2017-04-07T11:06:58.356Z,61.50
2017-04-07T11:07:57.394Z,63.80
2017-04-07T11:08:56.371Z,63.10
2017-04-07T11:09:55.361Z,63.10
2017-04-07T11:10:54.317Z,63.00
2017-04-07T11:11:53.303Z,61.60
2017-04-07T11:12:52.280Z,60.90
2017-04-07T11:13:51.260Z,60.70
2017-04-07T11:14:50.180Z,60.40
2017-04-07T11:15:49.171Z,60.90
2017-04-07T11:16:47.767Z,60.90
2017-04-07T11:17:46.729Z,61.50
2017-04-07T11:18:45.357Z,61.50
2017-04-07T11:19:43.935Z,60.90
2017-04-07T11:20:42.904Z,60.30
2017-04-07T11:21:41.927Z,60.10
2017-04-07T11:22:41.015Z,60.30
2017-04-07T11:23:39.992Z,60.50
2017-04-07T11:24:38.979Z,61.90
2017-04-07T11:25:37.958Z,61.10
2017-04-07T11:26:36.902Z,61.10
2017-04-07T11:27:35.883Z,62.00
2017-04-07T11:28:34.802Z,62.40
2017-04-07T11:29:34.203Z,61.20
2017-04-07T11:30:33.158Z,59.80
2017-04-07T11:31:32.184Z,60.00
2017-04-07T11:32:31.174Z,60.10
2017-04-07T11:33:30.492Z,60.00
2017-04-07T11:34:29.462Z,60.70
2017-04-07T11:35:28.372Z,60.70
2017-04-07T11:36:27.381Z,61.80
2017-04-07T11:37:26.391Z,60.70
2017-04-07T11:38:25.352Z,60.40
2017-04-07T11:39:24.359Z,61.30
2017-04-07T11:40:22.928Z,61.30
2017-04-07T11:41:21.903Z,61.30
2017-04-07T11:42:20.862Z,61.10
2017-04-07T11:43:19.899Z,60.90
2017-04-07T11:44:19.195Z,61.10
2017-04-07T11:45:18.179Z,62.00
2017-04-07T11:46:16.718Z,62.00
2017-04-07T11:47:15.669Z,61.60
2017-04-07T11:48:14.599Z,61.30
2017-04-07T11:49:13.227Z,61.30
2017-04-07T11:50:12.208Z,62.00
2017-04-07T11:51:11.267Z,61.30
2017-04-07T11:52:10.271Z,60.70
2017-04-07T11:53:09.230Z,60.90
2017-04-07T11:54:08.230Z,60.00
2017-04-07T11:55:06.800Z,60.00
2017-04-07T11:56:05.768Z,60.50
2017-04-07T11:57:05.124Z,60.40
2017-04-07T11:58:04.114Z,60.60
2017-04-07T11:59:03.056Z,60.40
2017-04-07T12:00:02.115Z,60.40
2017-04-07T12:01:01.156Z,60.10
2017-04-07T12:02:00.145Z,61.00
2017-04-07T12:02:59.138Z,60.70
2017-04-07T12:03:58.122Z,61.30
2017-04-07T12:04:57.136Z,60.00
2017-04-07T12:05:56.431Z,60.70
2017-04-07T12:06:55.407Z,60.30
2017-04-07T12:07:54.390Z,61.30
2017-04-07T12:08:53.384Z,61.20
2017-04-07T12:09:52.369Z,61.80
2017-04-07T12:10:51.318Z,61.10
2017-04-07T12:11:50.383Z,60.50
2017-04-07T12:12:49.357Z,60.20
2017-04-07T12:13:48.272Z,61.00
2017-04-07T12:14:47.615Z,60.30
2017-04-07T12:15:46.251Z,60.30
2017-04-07T12:16:45.587Z,60.80
2017-04-07T12:17:44.519Z,60.60
2017-04-07T12:18:43.855Z,60.40
2017-04-07T12:19:42.512Z,60.40
2017-04-07T12:20:41.463Z,60.60
2017-04-07T12:21:40.060Z,60.60
2017-04-07T12:22:39.085Z,60.90
2017-04-07T12:23:38.031Z,60.50
2017-04-07T12:24:37.076Z,60.50
2017-04-07T12:25:36.047Z,60.30
2017-04-07T12:26:34.995Z,61.00
2017-04-07T12:27:34.031Z,61.00
2017-04-07T12:28:33.030Z,61.10
2017-04-07T12:29:32.007Z,60.90
2017-04-07T12:30:31.330Z,61.40
2017-04-07T12:31:30.312Z,59.10
2017-04-07T12:32:29.275Z,59.60
2017-04-07T12:33:28.268Z,59.50
2017-04-07T12:34:27.315Z,59.80
2017-04-07T12:35:26.334Z,61.10
2017-04-07T12:36:25.300Z,61.10
2017-04-07T12:37:24.262Z,60.30
2017-04-07T12:38:23.231Z,60.20
2017-04-07T12:39:22.325Z,60.50
2017-04-07T12:40:21.312Z,60.50
2017-04-07T12:41:20.289Z,61.00